Time;durP1;ratioP1;P1;durP2;ratioP2;P2;SDS_P1;SDS_P2;PMS_P1;PMS_P2;Temp;Humidity;BMP_temperature;BMP_pressure;BME280_temperature;BME280_humidity;BME280_pressure;Samples;Min_cycle;Max_cycle;Signal;HPM_P1;HPM_P2
2023/10/22 00:00:09;;;;;;;5.05;4.65;;;;;;;11.11;86.88;96996.41;5080216;28;20227;-69
2023/10/22 00:02:35;;;;;;;4.07;3.78;;;;;;;11.23;86.07;97005.38;5072937;28;20203;-69
2023/10/22 00:05:02;;;;;;;5.00;4.70;;;;;;;11.01;87.06;97007.81;5077328;28;20232;-69
2023/10/22 00:07:29;;;;;;;5.80;5.30;;;;;;;11.19;86.55;97006.91;5081232;28;20602;-69
2023/10/22 00:09:56;;;;;;;5.90;5.50;;;;;;;11.15;86.66;97013.84;5080873;28;20277;-69
2023/10/22 00:12:23;;;;;;;5.30;4.90;;;;;;;11.18;86.89;97018.78;5078861;28;20207;-69
2023/10/22 00:14:49;;;;;;;5.13;4.70;;;;;;;11.09;87.25;97022.88;5068406;28;20196;-69
2023/10/22 00:17:16;;;;;;;5.63;5.22;;;;;;;11.04;87.57;97020.06;5080308;28;20199;-69
2023/10/22 00:19:42;;;;;;;6.43;5.93;;;;;;;11.03;88.04;97026.53;5078480;28;20224;-69
2023/10/22 00:22:12;;;;;;;5.80;5.43;;;;;;;11.04;87.85;97028.19;5079053;28;20211;-69
2023/10/22 00:24:38;;;;;;;5.82;5.32;;;;;;;11.00;88.12;97027.00;5055706;28;20344;-69
2023/10/22 00:27:06;;;;;;;5.00;4.55;;;;;;;10.98;87.90;97029.09;5078810;28;20195;-69
2023/10/22 00:29:32;;;;;;;4.70;4.20;;;;;;;10.86;88.27;97028.22;5070756;28;20239;-69
2023/10/22 00:31:59;;;;;;;4.13;3.83;;;;;;;10.98;87.90;97027.22;5089276;28;20196;-69
2023/10/22 00:34:25;;;;;;;3.80;3.50;;;;;;;10.82;87.78;97002.66;5078157;28;20199;-69
2023/10/22 00:36:52;;;;;;;3.83;3.53;;;;;;;10.93;87.50;97021.66;5076169;28;20314;-69
2023/10/22 00:39:18;;;;;;;4.75;3.38;;;;;;;11.08;86.61;97026.63;5051095;28;20200;-70
2023/10/22 00:41:45;;;;;;;4.00;3.67;;;;;;;11.11;85.99;97027.00;5055392;28;20208;-69
2023/10/22 00:44:12;;;;;;;3.95;3.25;;;;;;;10.97;86.99;97022.03;5067401;28;20219;-69
2023/10/22 00:46:39;;;;;;;4.10;3.10;;;;;;;11.00;86.33;97022.41;5079540;28;20207;-69
2023/10/22 00:49:06;;;;;;;2.85;2.65;;;;;;;11.02;86.07;97024.88;5079486;28;20199;-69
2023/10/22 00:51:33;;;;;;;2.80;2.60;;;;;;;11.11;85.32;97035.13;5075250;28;20286;-69
2023/10/22 00:53:59;;;;;;;3.63;2.97;;;;;;;11.04;85.42;97039.00;5075090;28;20192;-69
2023/10/22 00:56:26;;;;;;;3.20;2.92;;;;;;;11.09;84.97;97036.41;5072370;28;20207;-69
2023/10/22 00:58:53;;;;;;;2.78;2.50;;;;;;;11.10;84.50;97038.91;5058064;28;20204;-69
2023/10/22 01:01:22;;;;;;;2.67;2.47;;;;;;;11.26;83.86;97048.25;5079707;28;20306;-69
2023/10/22 01:03:49;;;;;;;2.83;2.63;;;;;;;11.20;83.77;97048.34;5089344;28;20490;-70
2023/10/22 01:06:15;;;;;;;2.38;2.20;;;;;;;11.24;83.63;97055.78;5077264;28;20344;-69
2023/10/22 01:08:42;;;;;;;2.75;2.47;;;;;;;11.19;83.72;97047.53;5078482;28;20198;-69
2023/10/22 01:11:09;;;;;;;2.80;2.60;;;;;;;11.26;83.31;97050.16;5065746;28;20226;-69
2023/10/22 01:13:36;;;;;;;2.30;2.15;;;;;;;11.22;83.31;97055.19;5078450;28;20198;-68
2023/10/22 01:16:02;;;;;;;2.20;2.00;;;;;;;11.19;82.91;97044.81;5070263;28;20204;-69
2023/10/22 01:18:30;;;;;;;2.67;2.10;;;;;;;11.20;83.10;97048.34;5097124;28;20200;-69
2023/10/22 01:20:57;;;;;;;2.47;2.03;;;;;;;11.17;82.97;97054.22;5077664;28;20577;-69
2023/10/22 01:23:25;;;;;;;2.13;1.77;;;;;;;11.14;83.00;97060.94;5077444;28;20629;-69
2023/10/22 01:25:51;;;;;;;1.73;1.63;;;;;;;11.15;82.67;97057.16;5081132;28;20219;-69
2023/10/22 01:28:18;;;;;;;2.55;1.70;;;;;;;11.19;82.35;97057.53;5077677;28;20695;-69
2023/10/22 01:30:45;;;;;;;1.73;1.63;;;;;;;11.18;82.35;97054.00;5073278;28;20237;-69
2023/10/22 01:33:11;;;;;;;2.75;1.75;;;;;;;11.23;81.81;97059.56;5075452;28;20295;-69
2023/10/22 01:35:38;;;;;;;2.55;2.35;;;;;;;11.25;81.73;97054.75;5083560;28;20710;-69
2023/10/22 01:38:04;;;;;;;1.52;1.40;;;;;;;11.26;81.48;97056.38;5082086;28;20658;-69
2023/10/22 01:40:32;;;;;;;2.15;1.77;;;;;;;11.23;81.31;97042.47;5080071;28;20264;-69
2023/10/22 01:42:58;;;;;;;1.73;1.63;;;;;;;11.22;81.17;97047.06;5078959;28;20200;-69
2023/10/22 01:45:25;;;;;;;1.92;1.73;;;;;;;11.18;81.65;97048.59;5084183;28;20227;-69
2023/10/22 01:47:52;;;;;;;1.75;1.35;;;;;;;11.13;81.69;97043.03;5082219;28;20210;-69
2023/10/22 01:50:19;;;;;;;2.55;1.70;;;;;;;11.15;81.57;97051.75;5078831;28;20227;-69
2023/10/22 01:52:45;;;;;;;1.80;1.70;;;;;;;11.07;81.92;97054.78;5059500;28;20211;-69
2023/10/22 01:55:11;;;;;;;2.25;1.55;;;;;;;10.99;81.94;97055.94;5080039;28;20563;-69
2023/10/22 01:57:39;;;;;;;1.55;1.45;;;;;;;10.99;81.84;97053.22;5078008;28;20652;-69
2023/10/22 02:00:10;;;;;;;2.85;1.70;;;;;;;11.03;81.36;97062.56;5081788;28;20675;-69
2023/10/22 02:02:37;;;;;;;3.17;1.50;;;;;;;11.05;81.35;97059.59;5080634;28;20206;-70
2023/10/22 02:05:04;;;;;;;3.17;1.85;;;;;;;10.98;81.45;97067.81;5070883;28;20229;-69
2023/10/22 02:07:31;;;;;;;1.50;1.40;;;;;;;10.96;81.59;97064.53;5080909;28;20212;-69
2023/10/22 02:09:57;;;;;;;1.77;1.60;;;;;;;11.04;80.89;97063.38;5077202;28;20219;-69
2023/10/22 02:12:27;;;;;;;1.80;1.40;;;;;;;10.97;81.38;97063.47;5079059;28;20220;-69
2023/10/22 02:14:55;;;;;;;1.67;1.58;;;;;;;10.96;81.20;97063.69;5080240;28;20196;-69
2023/10/22 02:17:22;;;;;;;2.80;1.42;;;;;;;10.69;81.02;97033.44;5072646;28;20218;-69
2023/10/22 02:19:48;;;;;;;1.42;1.30;;;;;;;11.03;80.90;97064.44;5083888;28;20224;-69
2023/10/22 02:22:16;;;;;;;2.42;1.50;;;;;;;11.07;80.39;97071.03;5080706;28;20546;-69
2023/10/22 02:24:42;;;;;;;1.73;1.60;;;;;;;11.01;80.78;97071.97;5082506;28;20223;-69
2023/10/22 02:27:09;;;;;;;2.53;1.70;;;;;;;10.92;80.77;97078.72;5082955;28;20207;-69
2023/10/22 02:29:36;;;;;;;1.50;1.40;;;;;;;10.91;81.00;97082.50;5075598;28;20223;-69
2023/10/22 02:32:04;;;;;;;1.52;1.33;;;;;;;10.90;80.84;97080.84;5079611;28;20678;-69
2023/10/22 02:34:30;;;;;;;2.60;1.70;;;;;;;10.86;80.70;97082.34;5081934;28;20202;-69
2023/10/22 02:36:57;;;;;;;2.40;1.95;;;;;;;10.84;80.50;97089.88;5079537;28;20562;-70
2023/10/22 02:39:24;;;;;;;1.83;1.58;;;;;;;10.94;80.14;97087.47;5084863;28;20695;-69
2023/10/22 02:41:50;;;;;;;1.65;1.55;;;;;;;10.94;80.11;97095.56;5066384;28;20783;-69
2023/10/22 02:44:17;;;;;;;2.17;1.55;;;;;;;11.07;78.92;97092.69;5079217;28;20215;-70
2023/10/22 02:46:43;;;;;;;1.98;1.50;;;;;;;11.03;79.32;97091.50;5083447;28;20202;-70
2023/10/22 02:49:11;;;;;;;2.65;1.60;;;;;;;10.93;79.56;97093.94;5078427;28;20255;-69
2023/10/22 02:51:37;;;;;;;2.75;1.70;;;;;;;10.77;78.79;97055.59;5077238;28;20219;-69
2023/10/22 02:54:04;;;;;;;2.60;1.30;;;;;;;11.05;78.74;97105.63;5074415;28;20210;-70
2023/10/22 02:56:31;;;;;;;2.75;1.40;;;;;;;11.08;78.47;97094.34;5082221;28;20210;-70
2023/10/22 02:58:57;;;;;;;1.70;1.50;;;;;;;11.12;78.19;97106.38;5081863;28;20659;-70
2023/10/22 03:01:24;;;;;;;1.80;1.33;;;;;;;11.15;77.76;97114.03;5081128;28;20211;-70
2023/10/22 03:03:50;;;;;;;1.45;1.30;;;;;;;11.13;77.84;97118.84;5076388;28;20206;-70
2023/10/22 03:06:18;;;;;;;1.58;1.35;;;;;;;11.05;77.45;97116.44;5084881;28;20199;-70
2023/10/22 03:08:44;;;;;;;2.85;1.33;;;;;;;11.14;77.29;97119.69;5075292;28;20199;-69
2023/10/22 03:11:18;;;;;;;1.33;1.23;;;;;;;11.16;76.99;97123.81;5081550;28;20203;-69
2023/10/22 03:13:45;;;;;;;2.63;1.40;;;;;;;11.05;77.37;97138.94;5078269;28;20603;-69
2023/10/22 03:16:14;;;;;;;2.25;1.52;;;;;;;11.04;77.44;97125.66;5081467;28;20681;-69
2023/10/22 03:18:41;;;;;;;1.30;1.20;;;;;;;11.07;77.01;97142.25;5081380;28;20303;-69
2023/10/22 03:21:10;;;;;;;1.55;1.38;;;;;;;11.09;77.10;97136.59;5081662;28;20215;-69
2023/10/22 03:23:41;;;;;;;3.72;1.33;;;;;;;11.09;77.20;97142.84;5056796;28;20207;-69
2023/10/22 03:26:08;;;;;;;1.80;1.20;;;;;;;11.00;77.43;97152.34;5072624;28;20338;-69
2023/10/22 03:28:36;;;;;;;2.40;1.30;;;;;;;11.00;77.17;97156.94;5076734;28;20204;-69
2023/10/22 03:31:04;;;;;;;2.58;1.50;;;;;;;11.01;77.11;97153.19;5073048;28;20281;-69
2023/10/22 03:33:30;;;;;;;1.30;1.10;;;;;;;10.83;77.60;97162.13;5086313;28;20206;-70
2023/10/22 03:35:57;;;;;;;4.22;1.58;;;;;;;10.77;77.99;97157.59;5080579;28;20213;-70
2023/10/22 03:38:24;;;;;;;2.35;1.10;;;;;;;10.74;77.89;97158.06;5079450;28;20201;-69
2023/10/22 03:40:58;;;;;;;3.05;1.10;;;;;;;10.63;78.34;97151.53;5081551;28;20792;-69
2023/10/22 03:43:25;;;;;;;1.85;1.27;;;;;;;10.67;78.04;97158.16;5074331;28;20192;-69
2023/10/22 03:45:51;;;;;;;1.98;1.20;;;;;;;10.74;77.67;97155.34;5081129;28;20234;-69
2023/10/22 03:48:18;;;;;;;1.35;1.00;;;;;;;10.72;77.30;97152.06;5082999;28;20204;-69
2023/10/22 03:50:44;;;;;;;1.88;1.30;;;;;;;10.81;77.06;97150.69;5058320;28;20234;-69
2023/10/22 03:53:11;;;;;;;3.95;1.30;;;;;;;10.77;76.92;97153.03;5071672;28;20199;-69
2023/10/22 03:55:37;;;;;;;1.75;1.30;;;;;;;10.77;76.80;97155.72;5075829;28;20643;-69
2023/10/22 03:58:06;;;;;;;1.92;1.25;;;;;;;10.72;76.94;97146.66;5076983;28;20210;-70
2023/10/22 04:00:33;;;;;;;3.15;1.20;;;;;;;10.75;76.34;97144.28;5079358;28;20583;-69
2023/10/22 04:02:59;;;;;;;2.75;1.23;;;;;;;10.84;75.18;97147.53;5077463;28;20204;-69
2023/10/22 04:05:26;;;;;;;1.70;1.10;;;;;;;10.96;74.56;97156.56;5079073;28;20223;-69
2023/10/22 04:07:52;;;;;;;2.80;1.35;;;;;;;10.96;74.22;97163.88;5082330;28;20663;-69
2023/10/22 04:10:19;;;;;;;1.88;1.10;;;;;;;11.04;73.67;97158.16;5074391;28;20215;-69
2023/10/22 04:12:45;;;;;;;2.40;1.10;;;;;;;11.10;73.76;97162.63;5082221;28;20199;-69
2023/10/22 04:15:14;;;;;;;1.50;1.13;;;;;;;11.16;73.26;97161.72;5081704;28;20291;-69
2023/10/22 04:17:40;;;;;;;1.80;0.90;;;;;;;11.23;73.43;97154.34;5070830;28;20208;-70
2023/10/22 04:20:08;;;;;;;2.55;1.15;;;;;;;11.15;73.60;97160.06;5093872;28;20503;-70
2023/10/22 04:22:35;;;;;;;1.75;1.10;;;;;;;11.20;73.59;97167.53;5079819;28;20214;-69
2023/10/22 04:25:01;;;;;;;3.72;1.05;;;;;;;11.11;73.67;97180.53;5078086;28;21098;-68
2023/10/22 04:27:28;;;;;;;1.10;1.00;;;;;;;11.13;74.02;97166.78;5074042;28;20560;-69
2023/10/22 04:29:55;;;;;;;2.15;1.30;;;;;;;11.17;73.83;97166.09;5080110;28;20231;-70
2023/10/22 04:32:23;;;;;;;2.08;1.17;;;;;;;11.06;74.19;97175.78;5080188;28;20258;-69
2023/10/22 04:35:11;;;;;;;1.48;1.20;;;;;;;11.07;74.33;97179.31;5354250;22;20226;-69
2023/10/22 04:37:38;;;;;;;2.65;1.30;;;;;;;11.00;74.45;97179.44;5092481;28;20222;-70
2023/10/22 04:40:06;;;;;;;3.22;1.17;;;;;;;11.02;74.47;97181.91;5104794;28;20199;-70
2023/10/22 04:42:32;;;;;;;2.30;1.15;;;;;;;11.01;74.61;97186.50;5104479;28;20214;-69
2023/10/22 04:44:58;;;;;;;3.13;1.27;;;;;;;11.02;74.39;97192.75;5100160;28;20262;-69
2023/10/22 04:47:26;;;;;;;1.50;1.15;;;;;;;10.93;74.36;97188.66;5097833;28;20207;-69
2023/10/22 04:49:53;;;;;;;1.70;1.00;;;;;;;10.91;74.25;97190.78;5108724;28;20229;-70
2023/10/22 04:52:30;;;;;;;2.17;1.30;;;;;;;10.88;74.26;97202.06;5106713;28;20198;-69
2023/10/22 04:54:57;;;;;;;1.77;1.13;;;;;;;10.89;73.82;97196.41;5093134;28;20226;-69
2023/10/22 04:57:24;;;;;;;2.28;1.30;;;;;;;10.97;73.37;97203.41;5104096;28;20283;-69
2023/10/22 04:59:50;;;;;;;1.58;1.05;;;;;;;10.88;73.71;97213.72;5105159;28;20282;-69
2023/10/22 05:02:17;;;;;;;1.65;1.00;;;;;;;11.08;73.14;97208.06;5106424;28;20198;-70
2023/10/22 05:04:47;;;;;;;2.80;1.15;;;;;;;10.97;72.99;97211.53;5102457;28;20233;-70
2023/10/22 05:07:13;;;;;;;2.67;1.38;;;;;;;11.09;72.51;97210.53;5105103;28;20219;-69
2023/10/22 05:09:40;;;;;;;2.08;1.60;;;;;;;11.01;72.85;97215.47;5108886;28;20199;-68
2023/10/22 05:12:07;;;;;;;1.85;1.10;;;;;;;11.01;72.49;97215.47;5102836;28;20207;-69
2023/10/22 05:14:33;;;;;;;2.88;1.20;;;;;;;10.94;72.77;97218.22;5102050;28;20219;-69
2023/10/22 05:17:00;;;;;;;2.10;1.10;;;;;;;11.01;72.60;97208.16;5104819;28;20218;-70
2023/10/22 05:19:26;;;;;;;2.60;1.17;;;;;;;10.90;73.04;97221.59;5089032;28;20198;-69
2023/10/22 05:21:54;;;;;;;3.00;1.33;;;;;;;10.93;72.93;97221.16;5101998;28;20198;-69
2023/10/22 05:24:21;;;;;;;4.38;1.30;;;;;;;10.89;72.87;97225.38;5089759;28;20203;-69
2023/10/22 05:26:47;;;;;;;1.80;1.05;;;;;;;10.91;72.74;97223.25;5082641;28;20230;-69
2023/10/22 05:29:14;;;;;;;2.17;1.13;;;;;;;10.88;72.55;97231.81;5102229;28;20213;-69
2023/10/22 05:31:40;;;;;;;1.63;1.10;;;;;;;10.86;72.59;97228.53;5102997;28;20218;-69
2023/10/22 05:34:06;;;;;;;2.47;1.30;;;;;;;10.86;72.13;97237.47;5104509;28;20490;-68
2023/10/22 05:36:33;;;;;;;1.80;1.13;;;;;;;10.94;71.60;97230.94;5093723;28;20219;-69
2023/10/22 05:39:02;;;;;;;3.03;1.05;;;;;;;10.88;72.17;97234.53;5101705;28;20717;-69
2023/10/22 05:41:29;;;;;;;2.72;1.17;;;;;;;10.86;72.08;97237.47;5094206;28;20825;-69
2023/10/22 05:43:59;;;;;;;1.45;0.85;;;;;;;10.90;72.08;97244.09;5096255;28;20203;-69
2023/10/22 05:46:26;;;;;;;3.60;1.08;;;;;;;10.89;71.98;97255.97;5095637;28;20244;-68
2023/10/22 05:48:52;;;;;;;2.80;0.90;;;;;;;10.91;71.62;97240.34;5105609;28;20222;-69
2023/10/22 05:51:19;;;;;;;4.15;1.10;;;;;;;10.88;72.08;97250.78;5105191;28;20203;-69
2023/10/22 05:53:46;;;;;;;1.75;1.20;;;;;;;10.92;71.95;97242.00;5104040;28;20573;-69
2023/10/22 05:56:14;;;;;;;3.17;1.15;;;;;;;10.91;71.79;97255.75;5096745;28;20254;-69
2023/10/22 05:58:40;;;;;;;1.23;0.93;;;;;;;10.88;71.70;97267.03;5104671;28;21029;-70
2023/10/22 06:01:08;;;;;;;3.15;1.25;;;;;;;11.00;71.36;97270.66;5097022;28;20191;-69
2023/10/22 06:03:35;;;;;;;1.90;1.00;;;;;;;10.83;71.83;97272.28;5103383;28;20266;-69
2023/10/22 06:06:02;;;;;;;3.40;1.10;;;;;;;10.92;71.93;97273.66;5098421;28;20563;-69
2023/10/22 06:08:29;;;;;;;3.28;1.30;;;;;;;10.74;72.23;97279.84;5105178;28;20206;-69
2023/10/22 06:10:55;;;;;;;2.40;1.33;;;;;;;10.85;71.82;97271.00;5113058;27;20202;-69
2023/10/22 06:13:23;;;;;;;2.40;1.00;;;;;;;10.95;71.19;97273.19;5089331;28;20206;-69
2023/10/22 06:15:49;;;;;;;2.50;1.00;;;;;;;10.93;71.36;97281.56;5095863;28;20226;-69
2023/10/22 06:18:16;;;;;;;3.65;1.13;;;;;;;11.10;71.30;97276.38;5095116;28;20234;-70
2023/10/22 06:20:42;;;;;;;2.75;1.15;;;;;;;10.96;71.44;97285.69;5097972;28;20218;-71
2023/10/22 06:23:09;;;;;;;5.22;1.40;;;;;;;10.99;71.05;97294.19;5105896;28;20705;-69
2023/10/22 06:25:36;;;;;;;1.98;1.20;;;;;;;10.87;71.83;97292.44;5107315;28;20381;-70
2023/10/22 06:28:02;;;;;;;3.38;1.10;;;;;;;11.01;71.51;97307.50;5106825;28;20202;-70
2023/10/22 06:30:30;;;;;;;1.80;0.90;;;;;;;11.19;70.45;97304.81;5095201;28;20201;-71
2023/10/22 06:32:58;;;;;;;2.78;1.20;;;;;;;11.11;70.94;97310.53;5097428;28;20197;-69
2023/10/22 06:35:26;;;;;;;2.40;1.00;;;;;;;11.11;71.19;97313.22;5104682;28;20230;-68
2023/10/22 06:37:53;;;;;;;3.50;1.00;;;;;;;11.13;70.71;97308.41;5106342;28;20211;-69
2023/10/22 06:40:20;;;;;;;4.15;1.23;;;;;;;11.07;70.94;97303.88;5096133;28;20287;-69
2023/10/22 06:42:46;;;;;;;4.30;1.23;;;;;;;11.30;70.62;97323.06;5107797;28;20290;-69
2023/10/22 06:45:13;;;;;;;2.45;1.20;;;;;;;11.25;70.17;97322.88;5108285;28;20230;-69
2023/10/22 06:47:41;;;;;;;1.83;1.13;;;;;;;11.36;70.14;97314.03;5109081;28;20207;-69
2023/10/22 06:50:09;;;;;;;2.95;1.15;;;;;;;11.47;69.68;97325.97;5104691;28;20214;-69
2023/10/22 06:52:36;;;;;;;2.90;1.02;;;;;;;11.90;68.66;97317.78;5107497;28;20211;-68
2023/10/22 06:55:02;;;;;;;1.80;1.10;;;;;;;12.31;66.35;97318.91;5103149;28;20233;-69
2023/10/22 06:57:29;;;;;;;2.95;1.17;;;;;;;12.71;65.67;97309.06;5096271;28;20195;-72
2023/10/22 06:59:57;;;;;;;4.03;1.20;;;;;;;13.06;64.20;97319.16;5094059;28;20203;-68
2023/10/22 07:02:23;;;;;;;3.40;1.23;;;;;;;12.98;63.54;97323.06;5093738;28;20968;-70
2023/10/22 07:04:53;;;;;;;3.87;1.40;;;;;;;13.01;63.28;97314.41;5100814;28;20596;-70
2023/10/22 07:07:20;;;;;;;6.53;1.67;;;;;;;13.65;62.11;97322.66;5101363;28;20492;-70
2023/10/22 07:09:47;;;;;;;1.53;1.00;;;;;;;13.64;61.02;97319.16;5104969;28;21026;-69
2023/10/22 07:12:13;;;;;;;2.57;1.30;;;;;;;13.88;60.62;97332.69;5099247;28;20465;-69
2023/10/22 07:14:40;;;;;;;4.80;1.10;;;;;;;13.81;60.98;97332.81;5098352;28;20469;-70
2023/10/22 07:17:06;;;;;;;2.93;1.10;;;;;;;14.40;60.51;97336.16;5093069;28;20450;-69
2023/10/22 07:19:33;;;;;;;1.57;1.00;;;;;;;14.39;59.01;97340.78;5097431;28;20466;-69
2023/10/22 07:22:00;;;;;;;4.47;1.70;;;;;;;14.44;58.56;97342.81;5100978;28;20460;-69
2023/10/22 07:24:28;;;;;;;2.30;1.30;;;;;;;14.43;58.24;97344.72;5100301;28;20475;-69
2023/10/22 07:26:54;;;;;;;3.50;1.20;;;;;;;14.52;58.08;97358.75;5096780;28;20490;-69
2023/10/22 07:29:21;;;;;;;1.57;1.00;;;;;;;14.38;58.00;97354.63;5101856;28;20467;-70
2023/10/22 07:31:48;;;;;;;2.63;1.10;;;;;;;14.59;57.73;97348.56;5095576;28;20443;-69
2023/10/22 07:34:15;;;;;;;2.50;1.30;;;;;;;15.17;56.04;97351.97;5096329;28;20500;-71
2023/10/22 07:36:41;;;;;;;1.30;1.07;;;;;;;15.58;54.69;97353.47;5089815;28;20452;-67
2023/10/22 07:39:11;;;;;;;2.80;1.00;;;;;;;15.66;54.17;97358.47;5097283;28;20905;-67
2023/10/22 07:41:37;;;;;;;1.90;1.30;;;;;;;16.06;53.06;97348.09;5097730;28;20453;-67
2023/10/22 07:44:04;;;;;;;1.77;1.00;;;;;;;16.03;53.04;97359.50;5096388;28;20457;-67
2023/10/22 07:46:31;;;;;;;2.83;1.27;;;;;;;15.93;52.89;97351.19;5095116;28;20492;-77
2023/10/22 07:48:57;;;;;;;1.90;1.40;;;;;;;16.24;52.56;97359.78;5099372;28;20518;-68
2023/10/22 07:51:26;;;;;;;2.03;1.17;;;;;;;15.98;52.21;97359.44;5076964;28;20453;-68
2023/10/22 07:53:55;;;;;;;2.50;0.90;;;;;;;15.84;53.33;97369.09;5088118;28;20452;-69
2023/10/22 07:56:23;;;;;;;1.53;0.90;;;;;;;16.75;50.94;97374.84;5101309;28;20464;-69
2023/10/22 07:58:50;;;;;;;2.60;1.13;;;;;;;16.42;51.23;97368.44;5094543;28;20462;-69
2023/10/22 08:01:16;;;;;;;2.07;1.10;;;;;;;16.29;51.31;97378.94;5091291;28;20462;-69
2023/10/22 08:03:43;;;;;;;3.03;1.00;;;;;;;16.53;50.91;97388.53;5102571;28;20457;-70
2023/10/22 08:06:09;;;;;;;4.10;3.70;;;;;;;16.91;49.75;97386.72;5101113;28;20488;-69
2023/10/22 08:08:36;;;;;;;4.07;1.50;;;;;;;17.14;49.80;97380.97;5093911;28;21154;-69
2023/10/22 08:11:04;;;;;;;4.53;1.97;;;;;;;16.80;49.62;97377.63;5092477;28;20449;-70
2023/10/22 08:13:32;;;;;;;3.40;1.93;;;;;;;16.76;50.09;97385.53;5094979;28;20533;-69
2023/10/22 08:16:02;;;;;;;2.60;1.33;;;;;;;16.65;50.15;97386.47;5098973;28;20472;-69
2023/10/22 08:18:29;;;;;;;2.90;1.23;;;;;;;16.38;50.56;97385.59;5101829;28;20874;-70
2023/10/22 08:21:01;;;;;;;1.97;1.73;;;;;;;16.99;49.78;97389.84;5100768;28;20467;-71
2023/10/22 08:23:27;;;;;;;2.10;1.10;;;;;;;16.46;50.49;97398.81;5103383;28;20460;-69
2023/10/22 08:25:54;;;;;;;3.53;1.93;;;;;;;16.44;51.03;97398.25;5093382;28;20793;-69
2023/10/22 08:28:20;;;;;;;2.53;2.10;;;;;;;16.66;49.96;97399.06;5098144;28;20940;-69
2023/10/22 08:30:49;;;;;;;3.87;1.67;;;;;;;16.48;49.88;97399.38;5103681;28;20540;-69
2023/10/22 08:33:16;;;;;;;1.83;1.40;;;;;;;16.26;50.30;97404.00;5114358;27;20449;-70
2023/10/22 08:35:44;;;;;;;3.43;1.13;;;;;;;16.44;50.03;97404.53;5100820;27;20486;-70
2023/10/22 08:38:10;;;;;;;2.27;1.10;;;;;;;16.54;50.26;97417.50;5099336;28;20470;-69
2023/10/22 08:40:41;;;;;;;2.73;1.20;;;;;;;16.63;49.41;97404.19;5103883;28;20448;-70
2023/10/22 08:43:16;;;;;;;3.33;1.33;;;;;;;16.84;49.68;97406.09;5096624;28;20487;-69
2023/10/22 08:45:45;;;;;;;1.50;1.10;;;;;;;16.92;48.21;97411.09;5100074;28;20464;-69
2023/10/22 08:48:15;;;;;;;2.67;1.20;;;;;;;17.64;47.33;97415.25;5101728;28;20536;-70
2023/10/22 08:50:43;;;;;;;4.50;1.40;;;;;;;17.42;47.42;97421.69;5103761;28;20456;-69
2023/10/22 08:53:12;;;;;;;2.77;1.10;;;;;;;17.62;46.33;97422.91;5092936;28;20471;-68
2023/10/22 08:55:39;;;;;;;5.43;4.17;;;;;;;17.97;46.42;97420.44;5104352;28;20452;-70
2023/10/22 08:58:06;;;;;;;3.10;2.73;;;;;;;17.62;45.58;97422.91;5105000;28;20437;-70
2023/10/22 09:00:33;;;;;;;2.30;1.60;;;;;;;17.96;45.30;97423.44;5094354;28;20467;-70
2023/10/22 09:03:00;;;;;;;2.47;1.10;;;;;;;17.95;45.44;97427.28;5098177;28;21040;-70
2023/10/22 09:05:29;;;;;;;4.03;1.90;;;;;;;17.95;45.50;97428.09;5098670;28;20491;-70
2023/10/22 09:07:56;;;;;;;1.73;1.07;;;;;;;17.45;46.20;97432.09;5101652;28;21002;-70
2023/10/22 09:10:28;;;;;;;1.67;1.03;;;;;;;17.65;45.75;97436.94;5103668;28;20451;-70
2023/10/22 09:12:55;;;;;;;2.10;1.00;;;;;;;17.62;46.36;97431.13;5079587;28;20462;-70
2023/10/22 09:15:22;;;;;;;3.17;1.60;;;;;;;17.46;46.27;97439.22;5088047;28;20494;-70
2023/10/22 09:18:00;;;;;;;5.00;2.30;;;;;;;18.36;45.53;97437.38;5097583;28;21193;-70
2023/10/22 09:20:29;;;;;;;5.00;2.97;;;;;;;18.46;44.67;97434.69;5096201;28;20828;-70
2023/10/22 09:23:12;;;;;;;2.77;1.53;;;;;;;18.22;44.73;97432.63;5083267;28;20467;-70
2023/10/22 09:25:38;;;;;;;10.20;7.40;;;;;;;19.07;43.65;97426.66;5100161;28;20485;-70
2023/10/22 09:28:12;;;;;;;3.73;2.80;;;;;;;19.61;41.65;97428.91;5100254;28;20486;-70
2023/10/22 09:30:40;;;;;;;3.60;2.00;;;;;;;19.48;41.58;97423.16;5086003;28;20591;-70
2023/10/22 09:33:08;;;;;;;2.87;1.40;;;;;;;18.75;43.31;97435.09;5093576;28;20889;-70
2023/10/22 09:35:36;;;;;;;1.50;1.00;;;;;;;18.86;42.63;97433.19;5120350;28;20855;-70
2023/10/22 09:38:03;;;;;;;2.80;1.20;;;;;;;18.72;42.68;97443.03;5094898;28;20466;-70
2023/10/22 09:40:33;;;;;;;3.40;1.20;;;;;;;18.88;43.13;97430.16;5104680;28;20457;-71
2023/10/22 09:43:01;;;;;;;4.20;1.67;;;;;;;19.04;42.55;97426.38;5101592;28;20457;-71
2023/10/22 09:45:28;;;;;;;2.60;1.30;;;;;;;19.04;42.50;97434.63;5104560;28;20464;-71
2023/10/22 09:47:56;;;;;;;3.03;1.33;;;;;;;19.01;41.32;97418.69;5108462;28;20488;-69
2023/10/22 09:50:23;;;;;;;3.43;1.43;;;;;;;19.17;41.58;97436.81;5107787;28;20458;-70
2023/10/22 09:52:52;;;;;;;2.07;1.30;;;;;;;18.79;42.71;97449.91;5099098;28;20464;-69
2023/10/22 09:55:20;;;;;;;3.90;0.90;;;;;;;19.00;42.50;97436.25;5108540;28;20482;-70
2023/10/22 09:57:47;;;;;;;2.97;1.20;;;;;;;19.65;41.65;97434.69;5098880;28;20457;-70
2023/10/22 10:00:14;;;;;;;3.57;1.20;;;;;;;19.24;41.56;97440.13;5108611;28;20457;-69
2023/10/22 10:02:41;;;;;;;2.40;1.03;;;;;;;19.31;42.52;97442.59;5101127;28;20446;-69
2023/10/22 10:05:09;;;;;;;2.57;1.27;;;;;;;18.62;43.53;97449.28;5108287;28;20468;-69
2023/10/22 10:07:37;;;;;;;3.37;1.20;;;;;;;18.49;43.87;97449.78;5104179;28;20992;-69
2023/10/22 10:10:06;;;;;;;2.70;1.20;;;;;;;19.03;42.78;97438.44;5106978;28;20459;-70
2023/10/22 10:12:34;;;;;;;3.47;1.30;;;;;;;19.65;41.91;97435.50;5104685;28;20532;-70
2023/10/22 10:15:00;;;;;;;2.80;1.60;;;;;;;18.99;42.34;97438.16;5106400;28;20483;-70
2023/10/22 10:17:27;;;;;;;3.10;1.47;;;;;;;18.98;43.03;97443.91;5106134;28;20497;-70
2023/10/22 10:20:26;;;;;;;1.83;1.30;;;;;;;19.29;42.16;97451.09;5105951;28;20479;-70
2023/10/22 10:23:03;;;;;;;4.53;1.40;;;;;;;18.65;43.98;97437.78;5103013;28;20464;-68
2023/10/22 10:25:32;;;;;;;3.03;1.40;;;;;;;19.32;42.43;97441.50;5098041;28;20472;-69
2023/10/22 10:28:04;;;;;;;1.90;1.10;;;;;;;19.53;42.79;97447.84;5103705;28;20484;-73
2023/10/22 10:30:31;;;;;;;2.70;1.23;;;;;;;19.53;41.20;97439.63;5103676;28;20465;-71
2023/10/22 10:32:57;;;;;;;1.50;1.10;;;;;;;19.41;42.08;97442.63;5105779;28;20471;-71
2023/10/22 10:35:25;;;;;;;2.67;1.40;;;;;;;18.85;43.13;97453.47;5100586;28;20464;-70
2023/10/22 10:38:17;;;;;;;2.40;1.00;;;;;;;18.42;44.19;97402.59;5103772;28;20464;-70
2023/10/22 10:40:47;;;;;;;2.90;1.27;;;;;;;20.45;40.57;97449.41;5100712;28;20493;-77
2023/10/22 10:43:13;;;;;;;3.83;1.20;;;;;;;19.84;41.06;97446.75;5104268;28;20454;-73
2023/10/22 10:45:41;;;;;;;2.27;1.17;;;;;;;18.49;42.76;97448.94;5102836;28;21009;-74
2023/10/22 10:48:08;;;;;;;2.60;1.17;;;;;;;17.67;44.78;97453.91;5100861;28;20492;-73
2023/10/22 10:50:36;;;;;;;2.43;1.30;;;;;;;17.44;45.87;97440.56;5100155;28;20464;-73
2023/10/22 10:53:03;;;;;;;2.60;1.30;;;;;;;17.10;45.90;97450.91;5100436;28;20456;-73
2023/10/22 10:55:32;;;;;;;2.60;1.47;;;;;;;17.08;46.24;97451.19;5122935;27;20476;-73
2023/10/22 10:58:01;;;;;;;2.60;1.00;;;;;;;17.21;46.21;97444.47;5099824;28;20461;-73
2023/10/22 11:00:30;;;;;;;1.93;1.10;;;;;;;17.35;45.83;97440.22;5104993;28;20449;-73
2023/10/22 11:02:58;;;;;;;3.73;1.20;;;;;;;17.69;45.71;97446.25;5122405;27;20453;-73
2023/10/22 11:05:32;;;;;;;2.00;1.20;;;;;;;17.44;45.26;97443.31;5106491;28;20994;-73
2023/10/22 11:07:58;;;;;;;3.97;1.60;;;;;;;16.90;45.72;97450.69;5104737;28;20491;-73
2023/10/22 11:10:28;;;;;;;5.30;1.30;;;;;;;16.88;46.25;97450.16;5101422;28;20448;-72
2023/10/22 11:13:03;;;;;;;4.83;1.87;;;;;;;16.78;46.85;97445.38;5108103;28;20433;-73
2023/10/22 11:15:35;;;;;;;2.93;1.20;;;;;;;17.83;44.61;97432.13;5103524;28;20480;-74
2023/10/22 11:18:02;;;;;;;2.63;1.30;;;;;;;19.08;42.13;97424.75;5106430;28;20455;-73
2023/10/22 11:20:28;;;;;;;2.67;1.10;;;;;;;19.69;40.02;97444.84;5105793;28;20993;-74
2023/10/22 11:22:55;;;;;;;4.10;1.40;;;;;;;19.80;38.91;97437.44;5089701;28;20468;-73
2023/10/22 11:25:21;;;;;;;3.30;1.33;;;;;;;19.83;39.34;97439.59;5101766;28;20486;-74
2023/10/22 11:27:49;;;;;;;2.33;1.50;;;;;;;19.36;39.93;97442.63;5093836;28;20488;-73
2023/10/22 11:30:36;;;;;;;2.47;1.33;;;;;;;18.07;41.67;97453.38;5080712;28;20600;-72
2023/10/22 11:33:02;;;;;;;5.17;1.90;;;;;;;18.07;41.89;97442.41;5092473;28;20446;-73
2023/10/22 11:35:30;;;;;;;3.17;1.07;;;;;;;18.10;41.36;97443.81;5103545;28;21081;-72